Woden, Iowa
Current Conditions -  °F | °C
As of 11:55 PM on Wednesday 22 Oct 2014 (Local Time) from KFXY Reporting Station
Light Rain Light Rain  
Wind Chill: 52°   Ceiling: 10000
Heat Index: 52°   Visibility: 10mi
Dew Point: 45°   Wind: 8mph
Humidity: 76%   Direction: 150°SSE
Pressure: 30.07"   Gusts: NA
Location:  43.23°N, 93.91°W
Report Text: KFXY 230455Z AUTO 15007KT 10SM -RA SCT047 SCT070 BKN100 11/07 A3007 RMK AO2
Loading
Personal Weather Stations






























Interactive Weather Map
Tropical Storm Tracking
New forecast layout! Learn more

10-Day Weather Forecast

Advertisements
Track Severe Weather on mobile